sensor_id;sensor_type;location;lat;lon;timestamp;temperature;humidity
24226;DHT22;51462;51.422;5.514;2022-12-29T00:01:58;10.50;99.90
24226;DHT22;51462;51.422;5.514;2022-12-29T00:04:24;10.40;99.90
24226;DHT22;51462;51.422;5.514;2022-12-29T00:06:52;10.50;99.90
24226;DHT22;51462;51.422;5.514;2022-12-29T00:09:17;10.50;99.90
24226;DHT22;51462;51.422;5.514;2022-12-29T00:11:43;10.40;99.90
24226;DHT22;51462;51.422;5.514;2022-12-29T00:14:10;10.50;99.90
24226;DHT22;51462;51.422;5.514;2022-12-29T00:16:54;10.40;99.90
24226;DHT22;51462;51.422;5.514;2022-12-29T00:19:20;10.40;99.90
24226;DHT22;51462;51.422;5.514;2022-12-29T00:22:05;10.40;99.90
24226;DHT22;51462;51.422;5.514;2022-12-29T00:24:49;10.40;99.90
24226;DHT22;51462;51.422;5.514;2022-12-29T00:27:28;10.40;99.90
24226;DHT22;51462;51.422;5.514;2022-12-29T00:30:18;10.40;99.90
24226;DHT22;51462;51.422;5.514;2022-12-29T00:33:14;10.40;99.90
24226;DHT22;51462;51.422;5.514;2022-12-29T00:38:37;10.40;99.90
24226;DHT22;51462;51.422;5.514;2022-12-29T00:41:23;10.30;99.90
24226;DHT22;51462;51.422;5.514;2022-12-29T00:44:08;10.50;99.90
24226;DHT22;51462;51.422;5.514;2022-12-29T00:46:39;10.50;99.90
24226;DHT22;51462;51.422;5.514;2022-12-29T00:49:06;10.40;99.90
24226;DHT22;51462;51.422;5.514;2022-12-29T00:51:51;10.50;99.90
24226;DHT22;51462;51.422;5.514;2022-12-29T00:54:18;10.50;99.90
24226;DHT22;51462;51.422;5.514;2022-12-29T00:56:49;10.60;99.90
24226;DHT22;51462;51.422;5.514;2022-12-29T00:59:15;10.50;99.90
24226;DHT22;51462;51.422;5.514;2022-12-29T01:01:41;10.50;99.90
24226;DHT22;51462;51.422;5.514;2022-12-29T01:04:08;10.50;99.90
24226;DHT22;51462;51.422;5.514;2022-12-29T01:06:35;10.50;99.90
24226;DHT22;51462;51.422;5.514;2022-12-29T01:09:02;10.50;99.90
24226;DHT22;51462;51.422;5.514;2022-12-29T01:11:46;10.50;99.90
24226;DHT22;51462;51.422;5.514;2022-12-29T01:14:12;10.60;99.90
24226;DHT22;51462;51.422;5.514;2022-12-29T01:16:37;10.50;99.90
24226;DHT22;51462;51.422;5.514;2022-12-29T01:19:03;10.60;99.90
24226;DHT22;51462;51.422;5.514;2022-12-29T01:21:29;10.60;99.90
24226;DHT22;51462;51.422;5.514;2022-12-29T01:23:55;10.60;99.90
24226;DHT22;51462;51.422;5.514;2022-12-29T01:26:21;10.60;99.90
24226;DHT22;51462;51.422;5.514;2022-12-29T01:28:46;10.60;99.90
24226;DHT22;51462;51.422;5.514;2022-12-29T01:31:14;10.60;99.90
24226;DHT22;51462;51.422;5.514;2022-12-29T01:33:41;10.60;99.90
24226;DHT22;51462;51.422;5.514;2022-12-29T01:36:10;10.60;99.90
24226;DHT22;51462;51.422;5.514;2022-12-29T01:38:37;10.70;99.90
24226;DHT22;51462;51.422;5.514;2022-12-29T01:41:03;10.70;99.90
24226;DHT22;51462;51.422;5.514;2022-12-29T01:43:46;10.60;99.90
24226;DHT22;51462;51.422;5.514;2022-12-29T01:46:20;10.60;99.90
24226;DHT22;51462;51.422;5.514;2022-12-29T01:49:12;10.70;99.90
24226;DHT22;51462;51.422;5.514;2022-12-29T01:51:48;10.60;99.90
24226;DHT22;51462;51.422;5.514;2022-12-29T01:54:46;10.80;99.90
24226;DHT22;51462;51.422;5.514;2022-12-29T01:57:26;10.80;99.90
24226;DHT22;51462;51.422;5.514;2022-12-29T01:59:56;10.80;99.90
24226;DHT22;51462;51.422;5.514;2022-12-29T02:02:24;10.80;99.90
24226;DHT22;51462;51.422;5.514;2022-12-29T02:04:52;10.80;99.90
24226;DHT22;51462;51.422;5.514;2022-12-29T02:07:22;10.90;99.90
24226;DHT22;51462;51.422;5.514;2022-12-29T02:09:53;10.90;99.90
24226;DHT22;51462;51.422;5.514;2022-12-29T02:12:20;10.90;99.90
24226;DHT22;51462;51.422;5.514;2022-12-29T02:14:47;10.90;99.90
24226;DHT22;51462;51.422;5.514;2022-12-29T02:17:19;11.00;99.90
24226;DHT22;51462;51.422;5.514;2022-12-29T02:19:57;10.90;99.90
24226;DHT22;51462;51.422;5.514;2022-12-29T02:23:05;10.90;99.90
24226;DHT22;51462;51.422;5.514;2022-12-29T02:34:10;10.80;99.90
24226;DHT22;51462;51.422;5.514;2022-12-29T02:39:52;10.80;99.90
24226;DHT22;51462;51.422;5.514;2022-12-29T02:45:12;10.80;99.90
24226;DHT22;51462;51.422;5.514;2022-12-29T02:47:42;10.80;99.90
24226;DHT22;51462;51.422;5.514;2022-12-29T02:50:20;10.70;99.90
24226;DHT22;51462;51.422;5.514;2022-12-29T02:53:11;10.70;99.90
24226;DHT22;51462;51.422;5.514;2022-12-29T02:55:37;10.80;99.90
24226;DHT22;51462;51.422;5.514;2022-12-29T03:00:37;10.80;99.90
24226;DHT22;51462;51.422;5.514;2022-12-29T03:06:33;10.70;99.90
24226;DHT22;51462;51.422;5.514;2022-12-29T03:11:42;10.70;99.90
24226;DHT22;51462;51.422;5.514;2022-12-29T03:14:39;10.70;99.90
24226;DHT22;51462;51.422;5.514;2022-12-29T03:17:34;10.70;99.90
24226;DHT22;51462;51.422;5.514;2022-12-29T03:20:07;10.70;99.90
24226;DHT22;51462;51.422;5.514;2022-12-29T03:22:36;10.70;99.90
24226;DHT22;51462;51.422;5.514;2022-12-29T03:25:17;10.60;99.90
24226;DHT22;51462;51.422;5.514;2022-12-29T03:27:48;10.60;99.90
24226;DHT22;51462;51.422;5.514;2022-12-29T03:30:15;10.50;99.90
24226;DHT22;51462;51.422;5.514;2022-12-29T03:32:48;10.50;99.90
24226;DHT22;51462;51.422;5.514;2022-12-29T03:35:18;10.50;99.90
24226;DHT22;51462;51.422;5.514;2022-12-29T03:38:02;10.50;99.90
24226;DHT22;51462;51.422;5.514;2022-12-29T03:40:31;10.40;99.90
24226;DHT22;51462;51.422;5.514;2022-12-29T03:42:57;10.40;99.90
24226;DHT22;51462;51.422;5.514;2022-12-29T03:45:23;10.40;99.90
24226;DHT22;51462;51.422;5.514;2022-12-29T03:47:49;10.40;99.90
24226;DHT22;51462;51.422;5.514;2022-12-29T03:50:15;10.40;99.90
24226;DHT22;51462;51.422;5.514;2022-12-29T03:52:41;10.30;99.90
24226;DHT22;51462;51.422;5.514;2022-12-29T03:55:07;10.30;99.90
24226;DHT22;51462;51.422;5.514;2022-12-29T03:57:32;10.30;99.90
24226;DHT22;51462;51.422;5.514;2022-12-29T03:59:58;10.30;99.90
24226;DHT22;51462;51.422;5.514;2022-12-29T04:02:23;10.20;99.90
24226;DHT22;51462;51.422;5.514;2022-12-29T04:04:49;10.20;99.90
24226;DHT22;51462;51.422;5.514;2022-12-29T04:07:15;10.20;99.90
24226;DHT22;51462;51.422;5.514;2022-12-29T04:09:40;10.20;99.90
24226;DHT22;51462;51.422;5.514;2022-12-29T04:12:06;10.20;99.90
24226;DHT22;51462;51.422;5.514;2022-12-29T04:14:31;10.10;99.90
24226;DHT22;51462;51.422;5.514;2022-12-29T04:16:57;10.10;99.90
24226;DHT22;51462;51.422;5.514;2022-12-29T04:19:22;10.00;99.90
24226;DHT22;51462;51.422;5.514;2022-12-29T04:21:48;10.00;99.90
24226;DHT22;51462;51.422;5.514;2022-12-29T04:24:14;9.90;99.90
24226;DHT22;51462;51.422;5.514;2022-12-29T04:26:40;9.90;99.90
24226;DHT22;51462;51.422;5.514;2022-12-29T04:29:05;9.90;99.90
24226;DHT22;51462;51.422;5.514;2022-12-29T04:31:31;9.90;99.90
24226;DHT22;51462;51.422;5.514;2022-12-29T04:33:56;9.90;99.90
24226;DHT22;51462;51.422;5.514;2022-12-29T04:36:23;9.90;99.90
24226;DHT22;51462;51.422;5.514;2022-12-29T04:38:48;9.90;99.90
24226;DHT22;51462;51.422;5.514;2022-12-29T04:41:14;9.90;99.90
24226;DHT22;51462;51.422;5.514;2022-12-29T04:43:40;9.90;99.90
24226;DHT22;51462;51.422;5.514;2022-12-29T04:46:05;9.90;99.90
24226;DHT22;51462;51.422;5.514;2022-12-29T04:48:31;9.90;99.90
24226;DHT22;51462;51.422;5.514;2022-12-29T04:50:57;9.90;99.90
24226;DHT22;51462;51.422;5.514;2022-12-29T04:53:22;9.90;99.90
24226;DHT22;51462;51.422;5.514;2022-12-29T04:55:50;9.90;99.90
24226;DHT22;51462;51.422;5.514;2022-12-29T04:58:16;9.80;99.90
24226;DHT22;51462;51.422;5.514;2022-12-29T05:00:41;9.80;99.90
24226;DHT22;51462;51.422;5.514;2022-12-29T05:03:07;9.80;99.90
24226;DHT22;51462;51.422;5.514;2022-12-29T05:05:32;9.80;99.90
24226;DHT22;51462;51.422;5.514;2022-12-29T05:07:58;9.80;99.90
24226;DHT22;51462;51.422;5.514;2022-12-29T05:10:23;9.70;99.90
24226;DHT22;51462;51.422;5.514;2022-12-29T05:12:49;9.70;99.90
24226;DHT22;51462;51.422;5.514;2022-12-29T05:15:15;9.80;99.90
24226;DHT22;51462;51.422;5.514;2022-12-29T05:17:40;9.70;99.90
24226;DHT22;51462;51.422;5.514;2022-12-29T05:20:06;9.70;99.90
24226;DHT22;51462;51.422;5.514;2022-12-29T05:22:32;9.70;99.90
24226;DHT22;51462;51.422;5.514;2022-12-29T05:24:58;9.70;99.90
24226;DHT22;51462;51.422;5.514;2022-12-29T05:27:23;9.70;99.90
24226;DHT22;51462;51.422;5.514;2022-12-29T05:29:49;9.70;99.90
24226;DHT22;51462;51.422;5.514;2022-12-29T05:32:15;9.80;99.90
24226;DHT22;51462;51.422;5.514;2022-12-29T05:34:40;9.80;99.90
24226;DHT22;51462;51.422;5.514;2022-12-29T05:37:06;9.80;99.90
24226;DHT22;51462;51.422;5.514;2022-12-29T05:39:31;9.80;99.90
24226;DHT22;51462;51.422;5.514;2022-12-29T05:41:57;9.80;99.90
24226;DHT22;51462;51.422;5.514;2022-12-29T05:44:23;9.90;99.90
24226;DHT22;51462;51.422;5.514;2022-12-29T05:46:48;9.90;99.90
24226;DHT22;51462;51.422;5.514;2022-12-29T05:49:14;9.90;99.90
24226;DHT22;51462;51.422;5.514;2022-12-29T05:51:39;10.00;99.90
24226;DHT22;51462;51.422;5.514;2022-12-29T05:54:05;9.90;99.90
24226;DHT22;51462;51.422;5.514;2022-12-29T05:56:31;9.90;99.90
24226;DHT22;51462;51.422;5.514;2022-12-29T05:58:56;9.90;99.90
24226;DHT22;51462;51.422;5.514;2022-12-29T06:01:22;9.90;99.90
24226;DHT22;51462;51.422;5.514;2022-12-29T06:03:47;10.00;99.90
24226;DHT22;51462;51.422;5.514;2022-12-29T06:06:13;10.00;99.90
24226;DHT22;51462;51.422;5.514;2022-12-29T06:08:38;10.00;99.90
24226;DHT22;51462;51.422;5.514;2022-12-29T06:11:04;10.00;99.90
24226;DHT22;51462;51.422;5.514;2022-12-29T06:13:29;10.10;99.90
24226;DHT22;51462;51.422;5.514;2022-12-29T06:15:55;10.00;99.90
24226;DHT22;51462;51.422;5.514;2022-12-29T06:18:20;10.10;99.90
24226;DHT22;51462;51.422;5.514;2022-12-29T06:20:46;10.10;99.90
24226;DHT22;51462;51.422;5.514;2022-12-29T06:23:12;10.20;99.90
24226;DHT22;51462;51.422;5.514;2022-12-29T06:25:38;10.20;99.90
24226;DHT22;51462;51.422;5.514;2022-12-29T06:28:04;10.10;99.90
24226;DHT22;51462;51.422;5.514;2022-12-29T06:30:31;10.20;99.90
24226;DHT22;51462;51.422;5.514;2022-12-29T06:32:58;10.20;99.90
24226;DHT22;51462;51.422;5.514;2022-12-29T06:35:23;10.20;99.90
24226;DHT22;51462;51.422;5.514;2022-12-29T06:37:49;10.20;99.90
24226;DHT22;51462;51.422;5.514;2022-12-29T06:40:15;10.20;99.90
24226;DHT22;51462;51.422;5.514;2022-12-29T06:42:40;10.20;99.90
24226;DHT22;51462;51.422;5.514;2022-12-29T06:45:06;10.20;99.90
24226;DHT22;51462;51.422;5.514;2022-12-29T06:47:33;10.20;99.90
24226;DHT22;51462;51.422;5.514;2022-12-29T06:49:59;10.20;99.90
24226;DHT22;51462;51.422;5.514;2022-12-29T06:52:24;10.20;99.90
24226;DHT22;51462;51.422;5.514;2022-12-29T06:54:50;10.20;99.90
24226;DHT22;51462;51.422;5.514;2022-12-29T06:57:16;10.20;99.90
24226;DHT22;51462;51.422;5.514;2022-12-29T06:59:41;10.20;99.90
24226;DHT22;51462;51.422;5.514;2022-12-29T07:02:10;10.20;99.90
24226;DHT22;51462;51.422;5.514;2022-12-29T07:04:36;10.20;99.90
24226;DHT22;51462;51.422;5.514;2022-12-29T07:07:01;10.40;99.90
24226;DHT22;51462;51.422;5.514;2022-12-29T07:09:27;10.30;99.90
24226;DHT22;51462;51.422;5.514;2022-12-29T07:11:52;10.30;99.90
24226;DHT22;51462;51.422;5.514;2022-12-29T07:14:18;10.30;99.90
24226;DHT22;51462;51.422;5.514;2022-12-29T07:16:44;10.30;99.90
24226;DHT22;51462;51.422;5.514;2022-12-29T07:19:09;10.30;99.90
24226;DHT22;51462;51.422;5.514;2022-12-29T07:21:35;10.40;99.90
24226;DHT22;51462;51.422;5.514;2022-12-29T07:24:00;10.30;99.90
24226;DHT22;51462;51.422;5.514;2022-12-29T07:26:26;10.30;99.90
24226;DHT22;51462;51.422;5.514;2022-12-29T07:28:52;10.30;99.90
24226;DHT22;51462;51.422;5.514;2022-12-29T07:31:19;10.40;99.90
24226;DHT22;51462;51.422;5.514;2022-12-29T07:33:46;10.30;99.90
24226;DHT22;51462;51.422;5.514;2022-12-29T07:36:12;10.40;99.90
24226;DHT22;51462;51.422;5.514;2022-12-29T07:38:39;10.40;99.90
24226;DHT22;51462;51.422;5.514;2022-12-29T07:41:05;10.40;99.90
24226;DHT22;51462;51.422;5.514;2022-12-29T07:43:30;10.40;99.90
24226;DHT22;51462;51.422;5.514;2022-12-29T07:45:56;10.40;99.90
24226;DHT22;51462;51.422;5.514;2022-12-29T07:48:21;10.40;99.90
24226;DHT22;51462;51.422;5.514;2022-12-29T07:50:47;10.40;99.90
24226;DHT22;51462;51.422;5.514;2022-12-29T07:53:13;10.40;99.90
24226;DHT22;51462;51.422;5.514;2022-12-29T07:55:39;10.40;99.90
24226;DHT22;51462;51.422;5.514;2022-12-29T07:58:05;10.50;99.90
24226;DHT22;51462;51.422;5.514;2022-12-29T08:00:31;10.50;99.90
24226;DHT22;51462;51.422;5.514;2022-12-29T08:02:56;10.50;99.90
24226;DHT22;51462;51.422;5.514;2022-12-29T08:05:22;10.40;99.90
24226;DHT22;51462;51.422;5.514;2022-12-29T08:07:48;10.40;99.90
24226;DHT22;51462;51.422;5.514;2022-12-29T08:10:14;10.50;99.90
24226;DHT22;51462;51.422;5.514;2022-12-29T08:12:40;10.50;99.90
24226;DHT22;51462;51.422;5.514;2022-12-29T08:15:07;10.60;99.90
24226;DHT22;51462;51.422;5.514;2022-12-29T08:17:33;10.50;99.90
24226;DHT22;51462;51.422;5.514;2022-12-29T08:19:58;10.50;99.90
24226;DHT22;51462;51.422;5.514;2022-12-29T08:22:24;10.50;99.90
24226;DHT22;51462;51.422;5.514;2022-12-29T08:24:50;10.50;99.90
24226;DHT22;51462;51.422;5.514;2022-12-29T08:27:15;10.50;99.90
24226;DHT22;51462;51.422;5.514;2022-12-29T08:29:41;10.60;99.90
24226;DHT22;51462;51.422;5.514;2022-12-29T08:32:07;10.60;99.90
24226;DHT22;51462;51.422;5.514;2022-12-29T08:34:33;10.60;99.90
24226;DHT22;51462;51.422;5.514;2022-12-29T08:36:58;10.60;99.90
24226;DHT22;51462;51.422;5.514;2022-12-29T08:39:24;10.60;99.90
24226;DHT22;51462;51.422;5.514;2022-12-29T08:41:49;10.60;99.90
24226;DHT22;51462;51.422;5.514;2022-12-29T08:44:15;10.60;99.90
24226;DHT22;51462;51.422;5.514;2022-12-29T08:46:41;10.60;99.90
24226;DHT22;51462;51.422;5.514;2022-12-29T08:49:06;10.60;99.90
24226;DHT22;51462;51.422;5.514;2022-12-29T08:51:32;10.70;99.90
24226;DHT22;51462;51.422;5.514;2022-12-29T08:53:58;10.60;99.90
24226;DHT22;51462;51.422;5.514;2022-12-29T08:56:24;10.60;99.90
24226;DHT22;51462;51.422;5.514;2022-12-29T08:58:51;10.60;99.90
24226;DHT22;51462;51.422;5.514;2022-12-29T09:01:16;10.70;99.90
24226;DHT22;51462;51.422;5.514;2022-12-29T09:03:42;10.70;99.90
24226;DHT22;51462;51.422;5.514;2022-12-29T09:06:07;10.70;99.90
24226;DHT22;51462;51.422;5.514;2022-12-29T09:08:33;10.70;99.90
24226;DHT22;51462;51.422;5.514;2022-12-29T09:11:07;10.70;99.90
24226;DHT22;51462;51.422;5.514;2022-12-29T09:13:33;10.70;99.90
24226;DHT22;51462;51.422;5.514;2022-12-29T09:15:59;10.80;99.90
24226;DHT22;51462;51.422;5.514;2022-12-29T09:18:25;10.80;99.90
24226;DHT22;51462;51.422;5.514;2022-12-29T09:20:56;10.90;99.90
24226;DHT22;51462;51.422;5.514;2022-12-29T09:23:22;10.80;99.90
24226;DHT22;51462;51.422;5.514;2022-12-29T09:25:47;10.80;99.90
24226;DHT22;51462;51.422;5.514;2022-12-29T09:28:13;10.80;99.90
24226;DHT22;51462;51.422;5.514;2022-12-29T09:30:39;10.80;99.90
24226;DHT22;51462;51.422;5.514;2022-12-29T09:33:04;10.80;99.90
24226;DHT22;51462;51.422;5.514;2022-12-29T09:35:30;10.80;99.90
24226;DHT22;51462;51.422;5.514;2022-12-29T09:37:55;10.80;99.90
24226;DHT22;51462;51.422;5.514;2022-12-29T09:40:26;10.80;99.90
24226;DHT22;51462;51.422;5.514;2022-12-29T09:46:25;10.60;99.90
24226;DHT22;51462;51.422;5.514;2022-12-29T09:49:06;10.60;99.90
24226;DHT22;51462;51.422;5.514;2022-12-29T09:51:36;10.60;99.90
24226;DHT22;51462;51.422;5.514;2022-12-29T09:57:03;10.50;99.90
24226;DHT22;51462;51.422;5.514;2022-12-29T09:59:40;10.40;99.90
24226;DHT22;51462;51.422;5.514;2022-12-29T10:02:31;10.40;99.90
24226;DHT22;51462;51.422;5.514;2022-12-29T10:04:58;10.40;99.90
24226;DHT22;51462;51.422;5.514;2022-12-29T10:07:33;10.40;99.90
24226;DHT22;51462;51.422;5.514;2022-12-29T10:16:12;10.10;99.90
24226;DHT22;51462;51.422;5.514;2022-12-29T10:18:47;10.10;99.90
24226;DHT22;51462;51.422;5.514;2022-12-29T10:23:55;10.00;99.90
24226;DHT22;51462;51.422;5.514;2022-12-29T10:26:28;10.00;99.90
24226;DHT22;51462;51.422;5.514;2022-12-29T10:28:59;10.00;99.90
24226;DHT22;51462;51.422;5.514;2022-12-29T10:32:11;10.00;99.90
24226;DHT22;51462;51.422;5.514;2022-12-29T10:34:44;9.90;99.90
24226;DHT22;51462;51.422;5.514;2022-12-29T10:39:52;10.00;99.90
24226;DHT22;51462;51.422;5.514;2022-12-29T10:42:34;10.10;99.90
24226;DHT22;51462;51.422;5.514;2022-12-29T10:45:03;10.10;99.90
24226;DHT22;51462;51.422;5.514;2022-12-29T10:47:33;10.00;99.90
24226;DHT22;51462;51.422;5.514;2022-12-29T10:50:02;10.00;99.90
24226;DHT22;51462;51.422;5.514;2022-12-29T10:52:28;10.00;99.90
24226;DHT22;51462;51.422;5.514;2022-12-29T10:55:01;9.90;99.90
24226;DHT22;51462;51.422;5.514;2022-12-29T10:57:36;9.80;99.90
24226;DHT22;51462;51.422;5.514;2022-12-29T11:08:10;10.00;99.90
24226;DHT22;51462;51.422;5.514;2022-12-29T11:10:42;10.00;99.90
24226;DHT22;51462;51.422;5.514;2022-12-29T11:13:17;10.20;99.90
24226;DHT22;51462;51.422;5.514;2022-12-29T11:15:48;10.20;99.90
24226;DHT22;51462;51.422;5.514;2022-12-29T11:18:19;10.30;99.90
24226;DHT22;51462;51.422;5.514;2022-12-29T11:20:46;10.30;99.90
24226;DHT22;51462;51.422;5.514;2022-12-29T11:24:00;10.30;99.90
24226;DHT22;51462;51.422;5.514;2022-12-29T11:26:21;10.30;99.90
24226;DHT22;51462;51.422;5.514;2022-12-29T11:31:31;10.40;99.90
24226;DHT22;51462;51.422;5.514;2022-12-29T11:34:06;10.40;99.90
24226;DHT22;51462;51.422;5.514;2022-12-29T11:36:34;10.40;99.90
24226;DHT22;51462;51.422;5.514;2022-12-29T11:39:00;10.40;99.90
24226;DHT22;51462;51.422;5.514;2022-12-29T11:41:29;10.40;99.90
24226;DHT22;51462;51.422;5.514;2022-12-29T11:44:01;10.40;99.90
24226;DHT22;51462;51.422;5.514;2022-12-29T11:46:34;10.30;99.90
24226;DHT22;51462;51.422;5.514;2022-12-29T11:49:02;10.40;99.90
24226;DHT22;51462;51.422;5.514;2022-12-29T11:51:33;10.40;99.90
24226;DHT22;51462;51.422;5.514;2022-12-29T11:54:02;10.40;99.90
24226;DHT22;51462;51.422;5.514;2022-12-29T11:56:42;10.40;99.90
24226;DHT22;51462;51.422;5.514;2022-12-29T12:01:52;10.50;99.90
24226;DHT22;51462;51.422;5.514;2022-12-29T12:04:21;10.50;99.90
24226;DHT22;51462;51.422;5.514;2022-12-29T12:07:07;10.60;99.90
24226;DHT22;51462;51.422;5.514;2022-12-29T12:09:52;10.60;99.90
24226;DHT22;51462;51.422;5.514;2022-12-29T12:12:29;10.60;99.90
24226;DHT22;51462;51.422;5.514;2022-12-29T12:14:58;10.60;99.90
24226;DHT22;51462;51.422;5.514;2022-12-29T12:17:27;10.70;99.90
24226;DHT22;51462;51.422;5.514;2022-12-29T12:20:28;10.70;99.90
24226;DHT22;51462;51.422;5.514;2022-12-29T12:23:17;10.80;99.90
24226;DHT22;51462;51.422;5.514;2022-12-29T12:26:04;10.80;99.90
24226;DHT22;51462;51.422;5.514;2022-12-29T12:33:57;10.90;99.90
24226;DHT22;51462;51.422;5.514;2022-12-29T12:36:43;10.90;99.90
24226;DHT22;51462;51.422;5.514;2022-12-29T12:39:27;10.90;99.90
24226;DHT22;51462;51.422;5.514;2022-12-29T12:45:03;10.90;99.90
24226;DHT22;51462;51.422;5.514;2022-12-29T12:47:48;11.00;99.90
24226;DHT22;51462;51.422;5.514;2022-12-29T12:50:36;10.90;99.90
24226;DHT22;51462;51.422;5.514;2022-12-29T12:53:22;10.90;99.90
24226;DHT22;51462;51.422;5.514;2022-12-29T13:01:33;10.90;99.90
24226;DHT22;51462;51.422;5.514;2022-12-29T13:07:03;10.80;99.90
24226;DHT22;51462;51.422;5.514;2022-12-29T13:09:40;10.60;99.90
24226;DHT22;51462;51.422;5.514;2022-12-29T13:12:29;10.70;99.90
24226;DHT22;51462;51.422;5.514;2022-12-29T13:15:12;10.70;99.90
24226;DHT22;51462;51.422;5.514;2022-12-29T13:17:51;10.60;99.90
24226;DHT22;51462;51.422;5.514;2022-12-29T13:20:27;10.60;99.90
24226;DHT22;51462;51.422;5.514;2022-12-29T13:23:18;10.60;99.90
24226;DHT22;51462;51.422;5.514;2022-12-29T13:31:32;10.60;99.90
24226;DHT22;51462;51.422;5.514;2022-12-29T13:34:18;10.20;99.90
24226;DHT22;51462;51.422;5.514;2022-12-29T13:36:55;10.10;99.90
24226;DHT22;51462;51.422;5.514;2022-12-29T13:39:28;10.10;99.90
24226;DHT22;51462;51.422;5.514;2022-12-29T13:41:56;10.00;99.90
24226;DHT22;51462;51.422;5.514;2022-12-29T13:44:28;9.90;99.90
24226;DHT22;51462;51.422;5.514;2022-12-29T13:46:56;9.70;99.90
24226;DHT22;51462;51.422;5.514;2022-12-29T13:49:23;9.70;99.90
24226;DHT22;51462;51.422;5.514;2022-12-29T13:52:03;9.50;99.90
24226;DHT22;51462;51.422;5.514;2022-12-29T13:54:55;9.60;99.90
24226;DHT22;51462;51.422;5.514;2022-12-29T14:00:20;9.60;99.90
24226;DHT22;51462;51.422;5.514;2022-12-29T14:07:57;9.50;99.90
24226;DHT22;51462;51.422;5.514;2022-12-29T14:10:47;9.60;99.90
24226;DHT22;51462;51.422;5.514;2022-12-29T14:13:16;9.70;99.90
24226;DHT22;51462;51.422;5.514;2022-12-29T14:15:56;9.80;99.90
24226;DHT22;51462;51.422;5.514;2022-12-29T14:18:28;9.70;99.90
24226;DHT22;51462;51.422;5.514;2022-12-29T14:21:29;9.80;99.90
24226;DHT22;51462;51.422;5.514;2022-12-29T14:23:50;9.90;99.90
24226;DHT22;51462;51.422;5.514;2022-12-29T14:28:53;9.90;99.90
24226;DHT22;51462;51.422;5.514;2022-12-29T14:36:37;10.10;99.90
24226;DHT22;51462;51.422;5.514;2022-12-29T14:39:04;9.90;99.90
24226;DHT22;51462;51.422;5.514;2022-12-29T14:41:59;10.00;99.90
24226;DHT22;51462;51.422;5.514;2022-12-29T14:44:25;10.00;99.90
24226;DHT22;51462;51.422;5.514;2022-12-29T14:46:55;9.90;99.90
24226;DHT22;51462;51.422;5.514;2022-12-29T14:49:28;10.00;99.90
24226;DHT22;51462;51.422;5.514;2022-12-29T14:52:12;9.90;99.90
24226;DHT22;51462;51.422;5.514;2022-12-29T14:54:43;9.90;99.90
24226;DHT22;51462;51.422;5.514;2022-12-29T14:57:28;9.90;99.90
24226;DHT22;51462;51.422;5.514;2022-12-29T15:00:01;9.80;99.90
24226;DHT22;51462;51.422;5.514;2022-12-29T15:02:33;9.80;99.90
24226;DHT22;51462;51.422;5.514;2022-12-29T15:05:00;10.00;99.90
24226;DHT22;51462;51.422;5.514;2022-12-29T15:07:28;10.10;99.90
24226;DHT22;51462;51.422;5.514;2022-12-29T15:10:00;10.00;99.90
24226;DHT22;51462;51.422;5.514;2022-12-29T15:15:02;9.80;99.90
24226;DHT22;51462;51.422;5.514;2022-12-29T15:17:42;9.80;99.90
24226;DHT22;51462;51.422;5.514;2022-12-29T15:20:24;9.80;99.90
24226;DHT22;51462;51.422;5.514;2022-12-29T15:22:54;9.80;99.90
24226;DHT22;51462;51.422;5.514;2022-12-29T15:25:20;9.70;99.90
24226;DHT22;51462;51.422;5.514;2022-12-29T15:27:51;9.70;99.90
24226;DHT22;51462;51.422;5.514;2022-12-29T15:30:18;9.70;99.90
24226;DHT22;51462;51.422;5.514;2022-12-29T15:32:45;9.80;99.90
24226;DHT22;51462;51.422;5.514;2022-12-29T15:35:37;9.50;99.90
24226;DHT22;51462;51.422;5.514;2022-12-29T15:38:14;9.50;99.90
24226;DHT22;51462;51.422;5.514;2022-12-29T15:40:43;9.50;99.90
24226;DHT22;51462;51.422;5.514;2022-12-29T15:45:41;9.60;99.90
24226;DHT22;51462;51.422;5.514;2022-12-29T15:48:16;9.60;99.90
24226;DHT22;51462;51.422;5.514;2022-12-29T15:50:43;9.70;99.90
24226;DHT22;51462;51.422;5.514;2022-12-29T15:53:11;9.70;99.90
24226;DHT22;51462;51.422;5.514;2022-12-29T15:55:39;9.40;99.90
24226;DHT22;51462;51.422;5.514;2022-12-29T15:58:15;9.40;99.90
24226;DHT22;51462;51.422;5.514;2022-12-29T16:00:47;9.30;99.90
24226;DHT22;51462;51.422;5.514;2022-12-29T16:03:14;9.20;99.90
24226;DHT22;51462;51.422;5.514;2022-12-29T16:05:40;9.20;99.90
24226;DHT22;51462;51.422;5.514;2022-12-29T16:10:50;9.10;99.90
24226;DHT22;51462;51.422;5.514;2022-12-29T16:13:31;9.20;99.90
24226;DHT22;51462;51.422;5.514;2022-12-29T16:16:09;9.00;99.90
24226;DHT22;51462;51.422;5.514;2022-12-29T16:18:37;8.90;99.90
24226;DHT22;51462;51.422;5.514;2022-12-29T16:21:16;9.00;99.90
24226;DHT22;51462;51.422;5.514;2022-12-29T16:23:48;9.00;99.90
24226;DHT22;51462;51.422;5.514;2022-12-29T16:26:19;8.80;99.90
24226;DHT22;51462;51.422;5.514;2022-12-29T16:28:49;8.90;99.90
24226;DHT22;51462;51.422;5.514;2022-12-29T16:31:34;9.10;99.90
24226;DHT22;51462;51.422;5.514;2022-12-29T16:34:21;9.00;99.90
24226;DHT22;51462;51.422;5.514;2022-12-29T16:37:03;8.90;99.90
24226;DHT22;51462;51.422;5.514;2022-12-29T16:41:55;9.20;99.90
24226;DHT22;51462;51.422;5.514;2022-12-29T16:44:24;9.10;99.90
24226;DHT22;51462;51.422;5.514;2022-12-29T16:49:38;9.00;99.90
24226;DHT22;51462;51.422;5.514;2022-12-29T16:52:17;8.90;99.90
24226;DHT22;51462;51.422;5.514;2022-12-29T16:54:58;8.90;99.90
24226;DHT22;51462;51.422;5.514;2022-12-29T16:57:29;8.80;99.90
24226;DHT22;51462;51.422;5.514;2022-12-29T16:59:59;8.70;99.90
24226;DHT22;51462;51.422;5.514;2022-12-29T17:02:27;9.00;99.90
24226;DHT22;51462;51.422;5.514;2022-12-29T17:04:53;8.90;99.90
24226;DHT22;51462;51.422;5.514;2022-12-29T17:07:21;9.00;99.90
24226;DHT22;51462;51.422;5.514;2022-12-29T17:09:47;8.80;99.90
24226;DHT22;51462;51.422;5.514;2022-12-29T17:12:25;9.00;99.90
24226;DHT22;51462;51.422;5.514;2022-12-29T17:14:56;9.20;99.90
24226;DHT22;51462;51.422;5.514;2022-12-29T17:17:39;9.20;99.90
24226;DHT22;51462;51.422;5.514;2022-12-29T17:20:24;8.90;99.90
24226;DHT22;51462;51.422;5.514;2022-12-29T17:22:50;8.60;99.90
24226;DHT22;51462;51.422;5.514;2022-12-29T17:25:20;8.80;99.90
24226;DHT22;51462;51.422;5.514;2022-12-29T17:27:57;8.70;99.90
24226;DHT22;51462;51.422;5.514;2022-12-29T17:30:25;8.70;99.90
24226;DHT22;51462;51.422;5.514;2022-12-29T17:33:05;8.70;99.90
24226;DHT22;51462;51.422;5.514;2022-12-29T17:35:33;8.80;99.90
24226;DHT22;51462;51.422;5.514;2022-12-29T17:37:59;8.60;99.90
24226;DHT22;51462;51.422;5.514;2022-12-29T17:40:29;8.70;99.90
24226;DHT22;51462;51.422;5.514;2022-12-29T17:42:57;8.70;99.90
24226;DHT22;51462;51.422;5.514;2022-12-29T17:45:24;8.80;99.90
24226;DHT22;51462;51.422;5.514;2022-12-29T17:47:51;8.50;99.90